sensor_id;sensor_type;location;lat;lon;timestamp;P1;durP1;ratioP1;P2;durP2;ratioP2
11510;SDS011;5812;48.864;9.190;2022-11-06T00:00:15;12.43;;;12.33;;
11510;SDS011;5812;48.864;9.190;2022-11-06T00:02:42;12.60;;;12.60;;
11510;SDS011;5812;48.864;9.190;2022-11-06T00:05:08;12.57;;;12.47;;
11510;SDS011;5812;48.864;9.190;2022-11-06T00:07:52;13.23;;;13.13;;
11510;SDS011;5812;48.864;9.190;2022-11-06T00:10:18;13.37;;;13.30;;
11510;SDS011;5812;48.864;9.190;2022-11-06T00:12:44;12.90;;;12.83;;
11510;SDS011;5812;48.864;9.190;2022-11-06T00:15:10;12.70;;;12.63;;
11510;SDS011;5812;48.864;9.190;2022-11-06T00:17:36;13.13;;;13.03;;
11510;SDS011;5812;48.864;9.190;2022-11-06T00:20:02;13.40;;;13.30;;
11510;SDS011;5812;48.864;9.190;2022-11-06T00:22:33;13.23;;;13.13;;
11510;SDS011;5812;48.864;9.190;2022-11-06T00:24:59;12.80;;;12.70;;
11510;SDS011;5812;48.864;9.190;2022-11-06T00:27:25;12.67;;;12.57;;
11510;SDS011;5812;48.864;9.190;2022-11-06T00:29:51;12.17;;;12.13;;
11510;SDS011;5812;48.864;9.190;2022-11-06T00:32:16;13.47;;;13.37;;
11510;SDS011;5812;48.864;9.190;2022-11-06T00:34:42;13.33;;;13.23;;
11510;SDS011;5812;48.864;9.190;2022-11-06T00:37:08;12.93;;;12.93;;
11510;SDS011;5812;48.864;9.190;2022-11-06T00:39:33;13.03;;;12.93;;
11510;SDS011;5812;48.864;9.190;2022-11-06T00:41:59;13.37;;;13.27;;
11510;SDS011;5812;48.864;9.190;2022-11-06T00:44:24;12.63;;;12.63;;
11510;SDS011;5812;48.864;9.190;2022-11-06T00:46:50;12.90;;;12.87;;
11510;SDS011;5812;48.864;9.190;2022-11-06T00:49:15;11.50;;;11.50;;
11510;SDS011;5812;48.864;9.190;2022-11-06T00:51:41;13.87;;;13.77;;
11510;SDS011;5812;48.864;9.190;2022-11-06T00:54:09;13.33;;;13.23;;
11510;SDS011;5812;48.864;9.190;2022-11-06T00:56:35;13.83;;;13.73;;
11510;SDS011;5812;48.864;9.190;2022-11-06T00:59:04;13.20;;;13.13;;
11510;SDS011;5812;48.864;9.190;2022-11-06T01:01:32;12.53;;;12.53;;
11510;SDS011;5812;48.864;9.190;2022-11-06T01:04:04;14.40;;;14.30;;
11510;SDS011;5812;48.864;9.190;2022-11-06T01:06:32;12.33;;;12.33;;
11510;SDS011;5812;48.864;9.190;2022-11-06T01:09:00;13.43;;;13.33;;
11510;SDS011;5812;48.864;9.190;2022-11-06T01:11:38;13.70;;;13.63;;
11510;SDS011;5812;48.864;9.190;2022-11-06T01:14:06;12.60;;;12.60;;
11510;SDS011;5812;48.864;9.190;2022-11-06T01:16:34;13.07;;;12.97;;
11510;SDS011;5812;48.864;9.190;2022-11-06T01:19:00;12.93;;;12.83;;
11510;SDS011;5812;48.864;9.190;2022-11-06T01:23:57;11.93;;;11.83;;
11510;SDS011;5812;48.864;9.190;2022-11-06T01:26:24;13.07;;;12.97;;
11510;SDS011;5812;48.864;9.190;2022-11-06T01:28:51;12.73;;;12.63;;
11510;SDS011;5812;48.864;9.190;2022-11-06T01:31:18;13.10;;;13.00;;
11510;SDS011;5812;48.864;9.190;2022-11-06T01:33:45;13.40;;;13.30;;
11510;SDS011;5812;48.864;9.190;2022-11-06T01:36:12;14.13;;;14.03;;
11510;SDS011;5812;48.864;9.190;2022-11-06T01:38:42;13.33;;;13.23;;
11510;SDS011;5812;48.864;9.190;2022-11-06T01:41:13;11.97;;;11.97;;
11510;SDS011;5812;48.864;9.190;2022-11-06T01:43:46;12.00;;;12.00;;
11510;SDS011;5812;48.864;9.190;2022-11-06T01:46:23;14.07;;;13.97;;
11510;SDS011;5812;48.864;9.190;2022-11-06T01:48:52;12.33;;;12.23;;
11510;SDS011;5812;48.864;9.190;2022-11-06T01:51:47;12.10;;;12.10;;
11510;SDS011;5812;48.864;9.190;2022-11-06T01:54:16;12.33;;;12.33;;
11510;SDS011;5812;48.864;9.190;2022-11-06T01:56:44;11.03;;;11.03;;
11510;SDS011;5812;48.864;9.190;2022-11-06T01:59:12;12.47;;;12.47;;
11510;SDS011;5812;48.864;9.190;2022-11-06T02:01:41;12.67;;;12.67;;
11510;SDS011;5812;48.864;9.190;2022-11-06T02:04:08;12.43;;;12.43;;
11510;SDS011;5812;48.864;9.190;2022-11-06T02:06:38;12.90;;;12.90;;
11510;SDS011;5812;48.864;9.190;2022-11-06T02:09:04;12.30;;;12.30;;
11510;SDS011;5812;48.864;9.190;2022-11-06T02:11:35;13.37;;;13.27;;
11510;SDS011;5812;48.864;9.190;2022-11-06T02:14:27;12.77;;;12.67;;
11510;SDS011;5812;48.864;9.190;2022-11-06T02:17:45;12.73;;;12.73;;
11510;SDS011;5812;48.864;9.190;2022-11-06T02:20:21;12.63;;;12.63;;
11510;SDS011;5812;48.864;9.190;2022-11-06T02:28:08;11.77;;;11.77;;
11510;SDS011;5812;48.864;9.190;2022-11-06T02:30:55;11.60;;;11.60;;
11510;SDS011;5812;48.864;9.190;2022-11-06T02:33:25;10.43;;;10.43;;
11510;SDS011;5812;48.864;9.190;2022-11-06T02:36:02;11.70;;;11.70;;
11510;SDS011;5812;48.864;9.190;2022-11-06T02:38:32;12.80;;;12.80;;
11510;SDS011;5812;48.864;9.190;2022-11-06T02:41:03;13.93;;;13.83;;
11510;SDS011;5812;48.864;9.190;2022-11-06T02:43:38;13.27;;;13.20;;
11510;SDS011;5812;48.864;9.190;2022-11-06T02:46:16;13.10;;;13.10;;
11510;SDS011;5812;48.864;9.190;2022-11-06T02:48:46;14.43;;;14.33;;
11510;SDS011;5812;48.864;9.190;2022-11-06T02:51:41;13.07;;;12.97;;
11510;SDS011;5812;48.864;9.190;2022-11-06T02:54:11;14.87;;;14.77;;
11510;SDS011;5812;48.864;9.190;2022-11-06T02:56:41;14.13;;;14.03;;
11510;SDS011;5812;48.864;9.190;2022-11-06T03:01:54;14.17;;;14.07;;
11510;SDS011;5812;48.864;9.190;2022-11-06T03:04:27;13.93;;;13.83;;
11510;SDS011;5812;48.864;9.190;2022-11-06T03:09:45;13.70;;;13.60;;
11510;SDS011;5812;48.864;9.190;2022-11-06T03:12:18;14.63;;;14.53;;
11510;SDS011;5812;48.864;9.190;2022-11-06T03:17:19;16.07;;;15.97;;
11510;SDS011;5812;48.864;9.190;2022-11-06T03:19:56;15.03;;;14.93;;
11510;SDS011;5812;48.864;9.190;2022-11-06T03:25:51;15.57;;;15.47;;
11510;SDS011;5812;48.864;9.190;2022-11-06T03:31:13;13.60;;;13.50;;
11510;SDS011;5812;48.864;9.190;2022-11-06T03:33:45;14.83;;;14.73;;
11510;SDS011;5812;48.864;9.190;2022-11-06T03:36:24;14.70;;;14.60;;
11510;SDS011;5812;48.864;9.190;2022-11-06T03:38:58;14.57;;;14.47;;
11510;SDS011;5812;48.864;9.190;2022-11-06T03:41:29;14.50;;;14.40;;
11510;SDS011;5812;48.864;9.190;2022-11-06T03:44:03;15.03;;;14.93;;
11510;SDS011;5812;48.864;9.190;2022-11-06T03:46:30;15.00;;;14.90;;
11510;SDS011;5812;48.864;9.190;2022-11-06T03:49:01;15.03;;;14.93;;
11510;SDS011;5812;48.864;9.190;2022-11-06T03:54:12;14.00;;;13.90;;
11510;SDS011;5812;48.864;9.190;2022-11-06T03:56:50;14.23;;;14.13;;
11510;SDS011;5812;48.864;9.190;2022-11-06T03:59:42;13.33;;;13.23;;
11510;SDS011;5812;48.864;9.190;2022-11-06T04:02:10;14.07;;;13.97;;
11510;SDS011;5812;48.864;9.190;2022-11-06T04:07:13;13.87;;;13.77;;
11510;SDS011;5812;48.864;9.190;2022-11-06T04:09:44;14.57;;;14.47;;
11510;SDS011;5812;48.864;9.190;2022-11-06T04:12:41;14.10;;;14.00;;
11510;SDS011;5812;48.864;9.190;2022-11-06T04:15:32;15.23;;;15.13;;
11510;SDS011;5812;48.864;9.190;2022-11-06T04:18:12;13.93;;;13.83;;
11510;SDS011;5812;48.864;9.190;2022-11-06T04:20:40;18.40;;;18.03;;
11510;SDS011;5812;48.864;9.190;2022-11-06T04:26:59;15.93;;;15.63;;
11510;SDS011;5812;48.864;9.190;2022-11-06T04:32:27;14.40;;;14.30;;
11510;SDS011;5812;48.864;9.190;2022-11-06T04:35:09;14.93;;;14.73;;
11510;SDS011;5812;48.864;9.190;2022-11-06T04:37:55;17.33;;;16.93;;
11510;SDS011;5812;48.864;9.190;2022-11-06T04:40:36;14.47;;;14.30;;
11510;SDS011;5812;48.864;9.190;2022-11-06T04:45:50;16.80;;;16.50;;
11510;SDS011;5812;48.864;9.190;2022-11-06T04:48:19;15.57;;;15.47;;
11510;SDS011;5812;48.864;9.190;2022-11-06T04:50:47;14.83;;;14.73;;
11510;SDS011;5812;48.864;9.190;2022-11-06T04:53:16;14.10;;;14.00;;
11510;SDS011;5812;48.864;9.190;2022-11-06T04:55:47;13.47;;;13.37;;
11510;SDS011;5812;48.864;9.190;2022-11-06T04:58:18;14.03;;;13.93;;
11510;SDS011;5812;48.864;9.190;2022-11-06T05:00:46;15.93;;;15.73;;
11510;SDS011;5812;48.864;9.190;2022-11-06T05:03:14;15.40;;;15.10;;
11510;SDS011;5812;48.864;9.190;2022-11-06T05:05:40;15.40;;;15.30;;
11510;SDS011;5812;48.864;9.190;2022-11-06T05:08:08;18.57;;;18.07;;
11510;SDS011;5812;48.864;9.190;2022-11-06T05:10:38;20.77;;;19.87;;
11510;SDS011;5812;48.864;9.190;2022-11-06T05:13:03;21.00;;;20.20;;
11510;SDS011;5812;48.864;9.190;2022-11-06T05:15:29;18.37;;;17.77;;
11510;SDS011;5812;48.864;9.190;2022-11-06T05:17:55;17.27;;;16.87;;
11510;SDS011;5812;48.864;9.190;2022-11-06T05:20:21;17.77;;;17.30;;
11510;SDS011;5812;48.864;9.190;2022-11-06T05:22:47;11.40;;;11.30;;
11510;SDS011;5812;48.864;9.190;2022-11-06T05:25:29;14.60;;;14.37;;
11510;SDS011;5812;48.864;9.190;2022-11-06T05:27:56;19.43;;;18.87;;
11510;SDS011;5812;48.864;9.190;2022-11-06T05:30:22;22.57;;;21.60;;
11510;SDS011;5812;48.864;9.190;2022-11-06T05:32:48;19.13;;;18.47;;
11510;SDS011;5812;48.864;9.190;2022-11-06T05:35:15;13.57;;;13.30;;
11510;SDS011;5812;48.864;9.190;2022-11-06T05:37:41;13.93;;;13.53;;
11510;SDS011;5812;48.864;9.190;2022-11-06T05:40:07;14.70;;;14.30;;
11510;SDS011;5812;48.864;9.190;2022-11-06T05:42:33;12.23;;;12.13;;
11510;SDS011;5812;48.864;9.190;2022-11-06T05:45:07;14.10;;;13.83;;
11510;SDS011;5812;48.864;9.190;2022-11-06T05:47:33;11.17;;;11.07;;
11510;SDS011;5812;48.864;9.190;2022-11-06T05:49:59;12.53;;;12.43;;
11510;SDS011;5812;48.864;9.190;2022-11-06T05:52:25;13.63;;;13.33;;
11510;SDS011;5812;48.864;9.190;2022-11-06T05:54:50;16.80;;;16.43;;
11510;SDS011;5812;48.864;9.190;2022-11-06T05:57:16;14.13;;;13.83;;
11510;SDS011;5812;48.864;9.190;2022-11-06T05:59:42;10.73;;;10.73;;
11510;SDS011;5812;48.864;9.190;2022-11-06T06:02:08;15.63;;;15.00;;
11510;SDS011;5812;48.864;9.190;2022-11-06T06:04:34;18.10;;;17.50;;
11510;SDS011;5812;48.864;9.190;2022-11-06T06:06:59;17.73;;;17.13;;
11510;SDS011;5812;48.864;9.190;2022-11-06T06:09:25;17.47;;;16.67;;
11510;SDS011;5812;48.864;9.190;2022-11-06T06:11:51;14.97;;;14.47;;
11510;SDS011;5812;48.864;9.190;2022-11-06T06:14:17;12.40;;;12.23;;
11510;SDS011;5812;48.864;9.190;2022-11-06T06:16:44;11.47;;;11.37;;
11510;SDS011;5812;48.864;9.190;2022-11-06T06:19:09;12.40;;;12.20;;
11510;SDS011;5812;48.864;9.190;2022-11-06T06:21:35;14.87;;;14.47;;
11510;SDS011;5812;48.864;9.190;2022-11-06T06:24:01;17.63;;;16.97;;
11510;SDS011;5812;48.864;9.190;2022-11-06T06:26:27;11.37;;;11.27;;
11510;SDS011;5812;48.864;9.190;2022-11-06T06:28:53;20.50;;;19.30;;
11510;SDS011;5812;48.864;9.190;2022-11-06T06:31:18;15.27;;;14.80;;
11510;SDS011;5812;48.864;9.190;2022-11-06T06:33:44;18.13;;;17.33;;
11510;SDS011;5812;48.864;9.190;2022-11-06T06:36:10;14.60;;;14.23;;
11510;SDS011;5812;48.864;9.190;2022-11-06T06:38:35;13.53;;;13.23;;
11510;SDS011;5812;48.864;9.190;2022-11-06T06:41:02;13.13;;;12.93;;
11510;SDS011;5812;48.864;9.190;2022-11-06T06:43:28;14.80;;;14.60;;
11510;SDS011;5812;48.864;9.190;2022-11-06T06:46:01;14.43;;;14.23;;
11510;SDS011;5812;48.864;9.190;2022-11-06T06:48:30;12.83;;;12.63;;
11510;SDS011;5812;48.864;9.190;2022-11-06T06:50:56;12.13;;;12.03;;
11510;SDS011;5812;48.864;9.190;2022-11-06T06:53:22;12.77;;;12.77;;
11510;SDS011;5812;48.864;9.190;2022-11-06T06:55:48;11.77;;;11.73;;
11510;SDS011;5812;48.864;9.190;2022-11-06T06:58:14;12.30;;;12.20;;
11510;SDS011;5812;48.864;9.190;2022-11-06T07:00:39;11.13;;;11.03;;
11510;SDS011;5812;48.864;9.190;2022-11-06T07:03:05;12.03;;;12.03;;
11510;SDS011;5812;48.864;9.190;2022-11-06T07:05:31;12.27;;;12.23;;
11510;SDS011;5812;48.864;9.190;2022-11-06T07:07:56;11.10;;;11.10;;
11510;SDS011;5812;48.864;9.190;2022-11-06T07:10:22;12.37;;;12.27;;
11510;SDS011;5812;48.864;9.190;2022-11-06T07:12:48;12.20;;;12.10;;
11510;SDS011;5812;48.864;9.190;2022-11-06T07:15:13;12.83;;;12.63;;
11510;SDS011;5812;48.864;9.190;2022-11-06T07:17:39;15.83;;;15.43;;
11510;SDS011;5812;48.864;9.190;2022-11-06T07:20:05;15.20;;;14.83;;
11510;SDS011;5812;48.864;9.190;2022-11-06T07:22:32;13.57;;;13.47;;
11510;SDS011;5812;48.864;9.190;2022-11-06T07:24:57;11.27;;;11.17;;
11510;SDS011;5812;48.864;9.190;2022-11-06T07:27:23;12.77;;;12.67;;
11510;SDS011;5812;48.864;9.190;2022-11-06T07:29:49;13.57;;;13.47;;
11510;SDS011;5812;48.864;9.190;2022-11-06T07:32:14;13.77;;;13.57;;
11510;SDS011;5812;48.864;9.190;2022-11-06T07:34:40;13.17;;;13.07;;
11510;SDS011;5812;48.864;9.190;2022-11-06T07:37:05;13.30;;;13.20;;
11510;SDS011;5812;48.864;9.190;2022-11-06T07:39:31;11.80;;;11.70;;
11510;SDS011;5812;48.864;9.190;2022-11-06T07:41:57;12.63;;;12.53;;
11510;SDS011;5812;48.864;9.190;2022-11-06T07:44:22;11.93;;;11.83;;
11510;SDS011;5812;48.864;9.190;2022-11-06T07:46:48;11.57;;;11.57;;
11510;SDS011;5812;48.864;9.190;2022-11-06T07:49:14;10.83;;;10.83;;
11510;SDS011;5812;48.864;9.190;2022-11-06T07:51:40;11.87;;;11.77;;
11510;SDS011;5812;48.864;9.190;2022-11-06T07:54:06;11.53;;;11.53;;
11510;SDS011;5812;48.864;9.190;2022-11-06T07:56:32;12.20;;;12.13;;
11510;SDS011;5812;48.864;9.190;2022-11-06T07:58:58;11.70;;;11.70;;
11510;SDS011;5812;48.864;9.190;2022-11-06T08:01:23;11.67;;;11.67;;
11510;SDS011;5812;48.864;9.190;2022-11-06T08:03:49;11.50;;;11.50;;
11510;SDS011;5812;48.864;9.190;2022-11-06T08:06:14;11.33;;;11.23;;
11510;SDS011;5812;48.864;9.190;2022-11-06T08:08:40;11.57;;;11.50;;
11510;SDS011;5812;48.864;9.190;2022-11-06T08:11:07;12.10;;;12.00;;
11510;SDS011;5812;48.864;9.190;2022-11-06T08:13:34;12.47;;;12.37;;
11510;SDS011;5812;48.864;9.190;2022-11-06T08:16:03;11.73;;;11.73;;
11510;SDS011;5812;48.864;9.190;2022-11-06T08:18:30;11.97;;;11.97;;
11510;SDS011;5812;48.864;9.190;2022-11-06T08:20:56;12.40;;;12.30;;
11510;SDS011;5812;48.864;9.190;2022-11-06T08:23:22;11.87;;;11.87;;
11510;SDS011;5812;48.864;9.190;2022-11-06T08:25:47;11.80;;;11.80;;
11510;SDS011;5812;48.864;9.190;2022-11-06T08:28:13;12.07;;;12.03;;
11510;SDS011;5812;48.864;9.190;2022-11-06T08:30:38;11.27;;;11.27;;
11510;SDS011;5812;48.864;9.190;2022-11-06T08:33:05;12.20;;;12.20;;
11510;SDS011;5812;48.864;9.190;2022-11-06T08:35:35;12.70;;;12.63;;
11510;SDS011;5812;48.864;9.190;2022-11-06T08:38:01;11.60;;;11.60;;
11510;SDS011;5812;48.864;9.190;2022-11-06T08:40:27;11.93;;;11.87;;
11510;SDS011;5812;48.864;9.190;2022-11-06T08:42:57;11.30;;;11.30;;
11510;SDS011;5812;48.864;9.190;2022-11-06T08:45:24;12.20;;;12.10;;
11510;SDS011;5812;48.864;9.190;2022-11-06T08:47:49;11.93;;;11.93;;
11510;SDS011;5812;48.864;9.190;2022-11-06T08:50:15;12.87;;;12.87;;
11510;SDS011;5812;48.864;9.190;2022-11-06T08:52:40;12.43;;;12.43;;
11510;SDS011;5812;48.864;9.190;2022-11-06T08:55:06;12.83;;;12.80;;
11510;SDS011;5812;48.864;9.190;2022-11-06T08:57:32;12.27;;;12.27;;
11510;SDS011;5812;48.864;9.190;2022-11-06T08:59:57;11.27;;;11.27;;
11510;SDS011;5812;48.864;9.190;2022-11-06T09:02:23;12.10;;;12.00;;
11510;SDS011;5812;48.864;9.190;2022-11-06T09:04:49;11.47;;;11.47;;
11510;SDS011;5812;48.864;9.190;2022-11-06T09:07:14;10.80;;;10.80;;
11510;SDS011;5812;48.864;9.190;2022-11-06T09:09:40;10.97;;;10.97;;
11510;SDS011;5812;48.864;9.190;2022-11-06T09:12:06;11.23;;;11.23;;
11510;SDS011;5812;48.864;9.190;2022-11-06T09:14:32;9.67;;;9.67;;
11510;SDS011;5812;48.864;9.190;2022-11-06T09:16:58;9.27;;;9.27;;
11510;SDS011;5812;48.864;9.190;2022-11-06T09:19:24;9.77;;;9.77;;
11510;SDS011;5812;48.864;9.190;2022-11-06T09:21:49;10.17;;;10.17;;
11510;SDS011;5812;48.864;9.190;2022-11-06T09:24:15;9.30;;;9.30;;
11510;SDS011;5812;48.864;9.190;2022-11-06T09:26:40;8.77;;;8.77;;
11510;SDS011;5812;48.864;9.190;2022-11-06T09:29:06;8.40;;;8.40;;
11510;SDS011;5812;48.864;9.190;2022-11-06T09:31:33;6.93;;;6.93;;
11510;SDS011;5812;48.864;9.190;2022-11-06T09:33:58;7.50;;;7.50;;
11510;SDS011;5812;48.864;9.190;2022-11-06T09:36:24;7.40;;;7.40;;
11510;SDS011;5812;48.864;9.190;2022-11-06T09:38:49;6.63;;;6.63;;
11510;SDS011;5812;48.864;9.190;2022-11-06T09:41:21;6.27;;;6.27;;
11510;SDS011;5812;48.864;9.190;2022-11-06T09:46:48;6.53;;;6.53;;
11510;SDS011;5812;48.864;9.190;2022-11-06T09:49:18;6.50;;;6.50;;
11510;SDS011;5812;48.864;9.190;2022-11-06T09:52:12;6.70;;;6.70;;
11510;SDS011;5812;48.864;9.190;2022-11-06T09:55:01;5.83;;;5.83;;
11510;SDS011;5812;48.864;9.190;2022-11-06T09:57:34;5.13;;;5.13;;
11510;SDS011;5812;48.864;9.190;2022-11-06T10:00:11;5.83;;;5.83;;
11510;SDS011;5812;48.864;9.190;2022-11-06T10:07:37;5.10;;;5.10;;
11510;SDS011;5812;48.864;9.190;2022-11-06T10:10:05;4.97;;;4.97;;
11510;SDS011;5812;48.864;9.190;2022-11-06T10:12:46;5.23;;;5.23;;
11510;SDS011;5812;48.864;9.190;2022-11-06T10:15:27;5.47;;;5.47;;
11510;SDS011;5812;48.864;9.190;2022-11-06T10:18:33;5.07;;;5.07;;
11510;SDS011;5812;48.864;9.190;2022-11-06T10:21:22;5.17;;;5.17;;
11510;SDS011;5812;48.864;9.190;2022-11-06T10:26:52;5.30;;;5.30;;
11510;SDS011;5812;48.864;9.190;2022-11-06T10:29:37;5.37;;;5.37;;
11510;SDS011;5812;48.864;9.190;2022-11-06T10:35:02;5.13;;;5.13;;
11510;SDS011;5812;48.864;9.190;2022-11-06T10:37:38;4.90;;;4.90;;
11510;SDS011;5812;48.864;9.190;2022-11-06T10:40:18;5.17;;;5.17;;
11510;SDS011;5812;48.864;9.190;2022-11-06T10:42:50;5.40;;;5.40;;
11510;SDS011;5812;48.864;9.190;2022-11-06T10:45:29;4.50;;;4.50;;
11510;SDS011;5812;48.864;9.190;2022-11-06T10:47:55;5.30;;;5.30;;
11510;SDS011;5812;48.864;9.190;2022-11-06T10:50:55;4.60;;;4.60;;
11510;SDS011;5812;48.864;9.190;2022-11-06T10:56:24;5.13;;;5.13;;
11510;SDS011;5812;48.864;9.190;2022-11-06T10:59:00;4.30;;;4.30;;
11510;SDS011;5812;48.864;9.190;2022-11-06T11:01:26;4.30;;;4.30;;
11510;SDS011;5812;48.864;9.190;2022-11-06T11:03:52;3.97;;;3.97;;
11510;SDS011;5812;48.864;9.190;2022-11-06T11:06:18;4.20;;;4.20;;
11510;SDS011;5812;48.864;9.190;2022-11-06T11:08:50;3.40;;;3.40;;
11510;SDS011;5812;48.864;9.190;2022-11-06T11:11:23;3.77;;;3.77;;
11510;SDS011;5812;48.864;9.190;2022-11-06T11:18:48;4.40;;;4.40;;
11510;SDS011;5812;48.864;9.190;2022-11-06T11:23:40;4.50;;;4.50;;
11510;SDS011;5812;48.864;9.190;2022-11-06T11:26:25;4.47;;;4.47;;
11510;SDS011;5812;48.864;9.190;2022-11-06T11:28:54;4.20;;;4.20;;
11510;SDS011;5812;48.864;9.190;2022-11-06T11:31:28;3.63;;;3.63;;
11510;SDS011;5812;48.864;9.190;2022-11-06T11:33:56;3.70;;;3.70;;
11510;SDS011;5812;48.864;9.190;2022-11-06T11:36:24;3.07;;;3.07;;
11510;SDS011;5812;48.864;9.190;2022-11-06T11:38:50;2.63;;;2.63;;
11510;SDS011;5812;48.864;9.190;2022-11-06T11:44:04;3.53;;;3.53;;
11510;SDS011;5812;48.864;9.190;2022-11-06T11:46:55;3.13;;;3.13;;
11510;SDS011;5812;48.864;9.190;2022-11-06T11:49:31;3.13;;;3.13;;
11510;SDS011;5812;48.864;9.190;2022-11-06T11:51:58;3.13;;;3.13;;
11510;SDS011;5812;48.864;9.190;2022-11-06T11:54:35;3.33;;;3.33;;
11510;SDS011;5812;48.864;9.190;2022-11-06T11:57:10;3.00;;;3.00;;
11510;SDS011;5812;48.864;9.190;2022-11-06T12:02:12;2.97;;;2.97;;
11510;SDS011;5812;48.864;9.190;2022-11-06T12:04:53;3.25;;;3.25;;
11510;SDS011;5812;48.864;9.190;2022-11-06T12:07:24;2.75;;;2.75;;
11510;SDS011;5812;48.864;9.190;2022-11-06T12:09:59;3.42;;;3.42;;
11510;SDS011;5812;48.864;9.190;2022-11-06T12:15:19;3.50;;;3.50;;
11510;SDS011;5812;48.864;9.190;2022-11-06T12:18:03;2.75;;;2.75;;
11510;SDS011;5812;48.864;9.190;2022-11-06T12:20:39;3.30;;;3.30;;
11510;SDS011;5812;48.864;9.190;2022-11-06T12:28:33;3.10;;;3.10;;
11510;SDS011;5812;48.864;9.190;2022-11-06T12:31:03;2.97;;;2.97;;
11510;SDS011;5812;48.864;9.190;2022-11-06T12:33:43;2.70;;;2.70;;
11510;SDS011;5812;48.864;9.190;2022-11-06T12:36:13;2.85;;;2.85;;
11510;SDS011;5812;48.864;9.190;2022-11-06T12:38:51;2.88;;;2.88;;
11510;SDS011;5812;48.864;9.190;2022-11-06T12:41:33;2.95;;;2.95;;
11510;SDS011;5812;48.864;9.190;2022-11-06T12:44:08;1.98;;;1.98;;
11510;SDS011;5812;48.864;9.190;2022-11-06T12:46:59;1.95;;;1.95;;
11510;SDS011;5812;48.864;9.190;2022-11-06T12:55:08;1.63;;;1.63;;
11510;SDS011;5812;48.864;9.190;2022-11-06T13:13:14;2.00;;;2.00;;
11510;SDS011;5812;48.864;9.190;2022-11-06T13:18:36;1.83;;;1.83;;
11510;SDS011;5812;48.864;9.190;2022-11-06T13:23:48;2.00;;;2.00;;
11510;SDS011;5812;48.864;9.190;2022-11-06T13:28:56;1.70;;;1.70;;
11510;SDS011;5812;48.864;9.190;2022-11-06T13:31:34;1.67;;;1.67;;
11510;SDS011;5812;48.864;9.190;2022-11-06T13:34:14;1.50;;;1.50;;
11510;SDS011;5812;48.864;9.190;2022-11-06T13:36:43;1.80;;;1.80;;
11510;SDS011;5812;48.864;9.190;2022-11-06T13:39:12;1.60;;;1.60;;
11510;SDS011;5812;48.864;9.190;2022-11-06T13:41:44;1.60;;;1.60;;
11510;SDS011;5812;48.864;9.190;2022-11-06T13:44:10;1.83;;;1.83;;
11510;SDS011;5812;48.864;9.190;2022-11-06T13:46:53;1.77;;;1.77;;
11510;SDS011;5812;48.864;9.190;2022-11-06T13:52:07;1.80;;;1.80;;
11510;SDS011;5812;48.864;9.190;2022-11-06T13:57:38;1.53;;;1.53;;
11510;SDS011;5812;48.864;9.190;2022-11-06T14:03:03;1.77;;;1.77;;
11510;SDS011;5812;48.864;9.190;2022-11-06T14:05:49;1.93;;;1.93;;
11510;SDS011;5812;48.864;9.190;2022-11-06T14:08:17;2.00;;;2.00;;
11510;SDS011;5812;48.864;9.190;2022-11-06T14:10:53;2.40;;;2.40;;
11510;SDS011;5812;48.864;9.190;2022-11-06T14:13:26;2.50;;;2.50;;
11510;SDS011;5812;48.864;9.190;2022-11-06T14:15:58;2.23;;;2.23;;
11510;SDS011;5812;48.864;9.190;2022-11-06T14:18:54;1.80;;;1.80;;
11510;SDS011;5812;48.864;9.190;2022-11-06T14:26:46;2.10;;;2.10;;
11510;SDS011;5812;48.864;9.190;2022-11-06T14:34:33;2.40;;;2.40;;
11510;SDS011;5812;48.864;9.190;2022-11-06T14:47:20;2.10;;;2.10;;
11510;SDS011;5812;48.864;9.190;2022-11-06T14:50:00;2.13;;;2.13;;
11510;SDS011;5812;48.864;9.190;2022-11-06T14:52:37;1.97;;;1.97;;
11510;SDS011;5812;48.864;9.190;2022-11-06T14:55:17;2.17;;;2.17;;
11510;SDS011;5812;48.864;9.190;2022-11-06T14:57:50;2.40;;;2.40;;
11510;SDS011;5812;48.864;9.190;2022-11-06T15:03:00;2.07;;;2.07;;
11510;SDS011;5812;48.864;9.190;2022-11-06T15:05:28;2.30;;;2.30;;
11510;SDS011;5812;48.864;9.190;2022-11-06T15:07:56;2.23;;;2.23;;
11510;SDS011;5812;48.864;9.190;2022-11-06T15:15:42;2.10;;;2.10;;
11510;SDS011;5812;48.864;9.190;2022-11-06T15:18:16;2.43;;;2.43;;
11510;SDS011;5812;48.864;9.190;2022-11-06T15:20:47;2.20;;;2.20;;
11510;SDS011;5812;48.864;9.190;2022-11-06T15:23:20;2.33;;;2.33;;
11510;SDS011;5812;48.864;9.190;2022-11-06T15:25:55;2.57;;;2.57;;
11510;SDS011;5812;48.864;9.190;2022-11-06T15:28:31;2.50;;;2.50;;
11510;SDS011;5812;48.864;9.190;2022-11-06T15:31:04;2.27;;;2.27;;
11510;SDS011;5812;48.864;9.190;2022-11-06T15:33:44;2.90;;;2.90;;
11510;SDS011;5812;48.864;9.190;2022-11-06T15:36:33;2.53;;;2.53;;
11510;SDS011;5812;48.864;9.190;2022-11-06T15:41:55;2.50;;;2.50;;
11510;SDS011;5812;48.864;9.190;2022-11-06T15:44:22;2.73;;;2.73;;
11510;SDS011;5812;48.864;9.190;2022-11-06T15:46:52;2.80;;;2.80;;
11510;SDS011;5812;48.864;9.190;2022-11-06T15:49:22;2.90;;;2.90;;
11510;SDS011;5812;48.864;9.190;2022-11-06T15:51:49;3.10;;;3.10;;
11510;SDS011;5812;48.864;9.190;2022-11-06T15:54:28;2.73;;;2.73;;
11510;SDS011;5812;48.864;9.190;2022-11-06T15:57:03;3.40;;;3.40;;
11510;SDS011;5812;48.864;9.190;2022-11-06T15:59:35;2.87;;;2.87;;
11510;SDS011;5812;48.864;9.190;2022-11-06T16:02:03;3.60;;;3.60;;
11510;SDS011;5812;48.864;9.190;2022-11-06T16:04:33;3.50;;;3.50;;
11510;SDS011;5812;48.864;9.190;2022-11-06T16:07:00;3.00;;;3.00;;
11510;SDS011;5812;48.864;9.190;2022-11-06T16:09:29;3.37;;;3.37;;
11510;SDS011;5812;48.864;9.190;2022-11-06T16:11:56;3.30;;;3.30;;
11510;SDS011;5812;48.864;9.190;2022-11-06T16:14:23;3.70;;;3.70;;
11510;SDS011;5812;48.864;9.190;2022-11-06T16:16:49;3.93;;;3.93;;
11510;SDS011;5812;48.864;9.190;2022-11-06T16:19:34;4.70;;;4.70;;
11510;SDS011;5812;48.864;9.190;2022-11-06T16:22:13;3.90;;;3.90;;
11510;SDS011;5812;48.864;9.190;2022-11-06T16:24:42;4.57;;;4.57;;
11510;SDS011;5812;48.864;9.190;2022-11-06T16:27:14;4.20;;;4.20;;
11510;SDS011;5812;48.864;9.190;2022-11-06T16:29:44;4.00;;;4.00;;
11510;SDS011;5812;48.864;9.190;2022-11-06T16:32:22;4.40;;;4.40;;
11510;SDS011;5812;48.864;9.190;2022-11-06T16:34:51;5.13;;;5.13;;
11510;SDS011;5812;48.864;9.190;2022-11-06T16:39:49;6.67;;;6.67;;
11510;SDS011;5812;48.864;9.190;2022-11-06T16:48:22;6.63;;;6.63;;
11510;SDS011;5812;48.864;9.190;2022-11-06T16:50:47;7.50;;;7.50;;
11510;SDS011;5812;48.864;9.190;2022-11-06T16:53:20;5.50;;;5.50;;
11510;SDS011;5812;48.864;9.190;2022-11-06T16:55:52;4.87;;;4.87;;
11510;SDS011;5812;48.864;9.190;2022-11-06T16:58:30;4.93;;;4.93;;
11510;SDS011;5812;48.864;9.190;2022-11-06T17:01:03;5.10;;;5.10;;
11510;SDS011;5812;48.864;9.190;2022-11-06T17:03:45;4.33;;;4.33;;
11510;SDS011;5812;48.864;9.190;2022-11-06T17:06:25;6.03;;;6.03;;
11510;SDS011;5812;48.864;9.190;2022-11-06T17:11:54;5.17;;;5.17;;
11510;SDS011;5812;48.864;9.190;2022-11-06T17:14:22;4.67;;;4.67;;
11510;SDS011;5812;48.864;9.190;2022-11-06T17:16:49;4.50;;;4.50;;
11510;SDS011;5812;48.864;9.190;2022-11-06T17:19:20;5.00;;;5.00;;
11510;SDS011;5812;48.864;9.190;2022-11-06T17:21:46;4.60;;;4.60;;
11510;SDS011;5812;48.864;9.190;2022-11-06T17:24:13;4.60;;;4.60;;
11510;SDS011;5812;48.864;9.190;2022-11-06T17:26:48;3.87;;;3.87;;
11510;SDS011;5812;48.864;9.190;2022-11-06T17:29:17;3.90;;;3.90;;
11510;SDS011;5812;48.864;9.190;2022-11-06T17:31:43;3.90;;;3.90;;
11510;SDS011;5812;48.864;9.190;2022-11-06T17:34:08;4.63;;;4.63;;
11510;SDS011;5812;48.864;9.190;2022-11-06T17:36:35;4.53;;;4.53;;
11510;SDS011;5812;48.864;9.190;2022-11-06T17:39:02;3.90;;;3.90;;
11510;SDS011;5812;48.864;9.190;2022-11-06T17:41:28;4.50;;;4.50;;